createdAt,value
2023-08-29T00:01:45.801Z,47.53
2023-08-29T00:06:49.320Z,48.21
2023-08-29T00:11:53.127Z,47.54
2023-08-29T00:16:58.471Z,48.10
2023-08-29T00:22:02.060Z,48.62
2023-08-29T00:27:06.046Z,48.22
2023-08-29T00:32:14.181Z,47.76
2023-08-29T00:37:19.607Z,48.31
2023-08-29T00:42:23.264Z,47.97
2023-08-29T00:47:28.808Z,48.76
2023-08-29T00:52:32.757Z,48.22
2023-08-29T00:57:36.393Z,47.85
2023-08-29T01:02:41.446Z,47.76
2023-08-29T01:07:47.927Z,48.86
2023-08-29T01:13:00.615Z,48.83
2023-08-29T01:18:07.281Z,49.12
2023-08-29T01:23:29.574Z,48.01
2023-08-29T01:28:34.803Z,48.41
2023-08-29T01:33:40.587Z,48.03
2023-08-29T01:38:44.197Z,47.85
2023-08-29T01:43:50.414Z,48.29
2023-08-29T01:48:54.524Z,48.72
2023-08-29T01:53:58.920Z,48.07
2023-08-29T01:59:04.134Z,48.78
2023-08-29T02:04:07.933Z,49.09
2023-08-29T02:09:12.161Z,48.41
2023-08-29T02:14:17.408Z,48.35
2023-08-29T02:19:21.404Z,48.81
2023-08-29T02:24:25.153Z,48.80
2023-08-29T02:29:30.189Z,48.48
2023-08-29T02:34:33.877Z,48.55
2023-08-29T02:39:37.471Z,49.00
2023-08-29T02:44:42.953Z,49.46
2023-08-29T02:49:46.632Z,49.04
2023-08-29T02:54:50.242Z,48.81
2023-08-29T02:59:55.388Z,48.74
2023-08-29T03:04:59.326Z,48.73
2023-08-29T03:10:04.057Z,49.90
2023-08-29T03:15:14.481Z,52.33
2023-08-29T03:20:18.509Z,49.60
2023-08-29T03:25:24.070Z,48.93
2023-08-29T03:30:29.054Z,49.99
2023-08-29T03:35:32.684Z,49.24
2023-08-29T03:40:36.524Z,49.43
2023-08-29T03:45:41.673Z,49.46
2023-08-29T03:50:46.346Z,49.28
2023-08-29T03:55:49.931Z,51.30
2023-08-29T04:00:56.274Z,49.91
2023-08-29T04:06:00.157Z,51.09
2023-08-29T04:11:05.119Z,53.64
2023-08-29T04:16:10.128Z,52.21
2023-08-29T04:21:13.688Z,51.29
2023-08-29T04:26:17.275Z,52.25
2023-08-29T04:31:22.549Z,54.17
2023-08-29T04:36:26.713Z,51.94
2023-08-29T04:41:30.404Z,51.64
2023-08-29T04:46:35.511Z,51.10
2023-08-29T04:51:39.225Z,52.28
2023-08-29T04:56:42.797Z,50.31
2023-08-29T05:01:50.510Z,49.63
2023-08-29T05:06:54.719Z,49.55
2023-08-29T05:11:58.267Z,49.05
2023-08-29T05:17:03.494Z,49.21
2023-08-29T05:22:07.679Z,49.84
2023-08-29T05:27:11.308Z,48.78
2023-08-29T05:32:16.313Z,49.87
2023-08-29T05:37:19.927Z,49.66
2023-08-29T05:42:23.722Z,48.82
2023-08-29T05:47:28.977Z,49.78
2023-08-29T05:52:32.670Z,51.99
2023-08-29T05:57:36.393Z,51.10
2023-08-29T06:02:41.543Z,49.11
2023-08-29T06:07:45.356Z,50.22
2023-08-29T06:12:49.219Z,49.05
2023-08-29T06:17:54.418Z,48.90
2023-08-29T06:22:59.625Z,50.98
2023-08-29T06:28:03.163Z,50.75
2023-08-29T06:33:08.671Z,50.33
2023-08-29T06:38:12.391Z,53.22
2023-08-29T06:43:15.888Z,53.23
2023-08-29T06:48:20.948Z,55.87
2023-08-29T06:53:26.528Z,51.30
2023-08-29T06:58:30.144Z,49.91
2023-08-29T07:03:35.302Z,49.67
2023-08-29T07:08:41.130Z,49.01
2023-08-29T07:13:44.936Z,49.07
2023-08-29T07:18:50.176Z,48.72
2023-08-29T07:23:55.444Z,49.37
2023-08-29T07:28:59.100Z,47.16
2023-08-29T07:34:04.389Z,48.46
2023-08-29T07:39:08.106Z,47.10
2023-08-29T07:44:11.788Z,50.22
2023-08-29T07:49:21.454Z,49.75
2023-08-29T07:54:25.174Z,47.08
2023-08-29T07:59:28.795Z,47.23
2023-08-29T08:04:33.853Z,46.79
2023-08-29T08:09:37.409Z,45.36
2023-08-29T08:14:41.088Z,44.50
2023-08-29T08:19:46.213Z,45.29
2023-08-29T08:24:50.020Z,44.56
2023-08-29T08:29:53.733Z,46.80
2023-08-29T08:34:58.907Z,45.31
2023-08-29T08:40:10.316Z,45.70
2023-08-29T08:45:14.033Z,44.02
2023-08-29T08:50:19.487Z,44.35
2023-08-29T08:55:24.052Z,43.08
2023-08-29T09:00:27.796Z,44.08
2023-08-29T09:05:32.803Z,42.26
2023-08-29T09:10:40.151Z,43.20
2023-08-29T09:15:43.995Z,41.78
2023-08-29T09:20:52.955Z,42.00
2023-08-29T09:25:57.318Z,42.17
2023-08-29T09:31:07.353Z,40.66
2023-08-29T09:36:12.992Z,40.38
2023-08-29T09:41:16.921Z,38.74
2023-08-29T09:46:25.205Z,40.79
2023-08-29T09:51:31.029Z,40.89
2023-08-29T09:56:35.624Z,39.69
2023-08-29T10:01:40.917Z,39.05
2023-08-29T10:06:46.920Z,38.24
2023-08-29T10:11:54.441Z,39.09
2023-08-29T10:17:01.079Z,39.27
2023-08-29T10:22:08.389Z,39.95
2023-08-29T10:27:12.446Z,40.11
2023-08-29T10:32:16.879Z,42.35
2023-08-29T10:37:23.306Z,39.57
2023-08-29T10:42:26.929Z,39.06
2023-08-29T10:47:32.458Z,37.30
2023-08-29T10:52:38.717Z,37.01
2023-08-29T10:57:43.274Z,36.44
2023-08-29T11:02:48.874Z,36.07
2023-08-29T11:07:54.015Z,35.99
2023-08-29T11:13:07.409Z,34.91
2023-08-29T11:18:20.907Z,36.48
2023-08-29T11:23:26.139Z,33.41
2023-08-29T11:28:29.814Z,33.53
2023-08-29T11:33:35.016Z,37.64
2023-08-29T11:38:41.564Z,35.86
2023-08-29T11:44:30.946Z,37.32
2023-08-29T11:49:13.894Z,36.85
2023-08-29T11:54:42.502Z,34.03
2023-08-29T11:59:47.421Z,34.41
2023-08-29T12:04:58.862Z,32.40
2023-08-29T12:10:10.460Z,35.69
2023-08-29T12:15:19.541Z,32.08
2023-08-29T12:20:34.853Z,33.71
2023-08-29T12:25:40.035Z,33.49
2023-08-29T12:30:43.780Z,32.07
2023-08-29T12:35:49.749Z,31.52
2023-08-29T12:40:55.182Z,30.61
2023-08-29T12:46:00.290Z,32.95
2023-08-29T12:51:04.693Z,30.88
2023-08-29T12:56:12.001Z,32.24
2023-08-29T13:01:17.722Z,30.95
2023-08-29T13:06:25.129Z,31.04
2023-08-29T13:11:31.356Z,29.99
2023-08-29T13:16:35.782Z,29.61
2023-08-29T13:21:39.355Z,30.37
2023-08-29T13:26:44.469Z,29.90
2023-08-29T13:31:48.270Z,30.18
2023-08-29T13:36:52.096Z,27.94
2023-08-29T13:41:57.222Z,29.52
2023-08-29T13:47:00.785Z,28.86
2023-08-29T13:52:05.750Z,27.13
2023-08-29T13:57:13.285Z,26.23
2023-08-29T14:02:16.942Z,27.62
2023-08-29T14:07:21.861Z,28.50
2023-08-29T14:12:26.969Z,27.15
2023-08-29T14:17:30.676Z,27.55
2023-08-29T14:22:34.278Z,28.66
2023-08-29T14:27:40.662Z,29.91
2023-08-29T14:32:44.452Z,30.02
2023-08-29T14:37:50.723Z,30.19
2023-08-29T14:42:55.801Z,30.22
2023-08-29T14:47:59.807Z,30.48
2023-08-29T14:53:03.393Z,31.10
2023-08-29T14:58:08.557Z,30.32
2023-08-29T15:03:14.129Z,30.46
2023-08-29T15:08:17.842Z,30.39
2023-08-29T15:13:23.402Z,29.19
2023-08-29T15:18:27.178Z,28.86
2023-08-29T15:23:31.573Z,29.70
2023-08-29T15:28:36.792Z,31.52
2023-08-29T15:33:40.949Z,31.22
2023-08-29T15:38:44.521Z,30.39
2023-08-29T15:43:49.795Z,31.38
2023-08-29T15:48:53.378Z,30.80
2023-08-29T15:53:56.990Z,33.29
2023-08-29T15:59:02.013Z,30.56
2023-08-29T16:04:07.095Z,30.92
2023-08-29T16:09:11.124Z,31.19
2023-08-29T16:14:18.079Z,29.36
2023-08-29T16:19:21.898Z,28.87
2023-08-29T16:24:25.678Z,31.48
2023-08-29T16:29:31.502Z,30.84
2023-08-29T16:34:35.243Z,30.57
2023-08-29T16:39:41.215Z,29.75
2023-08-29T16:44:46.358Z,30.47
2023-08-29T16:49:50.143Z,29.89
2023-08-29T16:54:53.829Z,29.95
2023-08-29T17:00:00.305Z,30.76
2023-08-29T17:05:04.479Z,30.58
2023-08-29T17:10:09.158Z,31.04
2023-08-29T17:15:14.530Z,31.50
2023-08-29T17:20:18.498Z,32.44
2023-08-29T17:25:22.262Z,34.36
2023-08-29T17:30:27.616Z,31.64
2023-08-29T17:35:31.408Z,33.49
2023-08-29T17:40:35.131Z,32.93
2023-08-29T17:45:46.233Z,32.73
2023-08-29T17:50:50.064Z,33.08
2023-08-29T17:55:54.984Z,34.74
2023-08-29T18:01:00.051Z,34.69
2023-08-29T18:06:14.245Z,34.83
2023-08-29T18:11:27.353Z,35.35
2023-08-29T18:16:32.422Z,35.68
2023-08-29T18:21:35.954Z,36.47
2023-08-29T18:26:41.602Z,36.28
2023-08-29T18:31:46.720Z,38.02
2023-08-29T18:36:50.314Z,37.81
2023-08-29T18:41:53.956Z,37.20
2023-08-29T18:46:58.814Z,37.59
2023-08-29T18:52:02.417Z,37.91
2023-08-29T18:57:06.490Z,39.15
2023-08-29T19:02:11.490Z,38.70
2023-08-29T19:07:15.106Z,40.38
2023-08-29T19:12:18.928Z,40.74
2023-08-29T19:17:23.925Z,41.18
2023-08-29T19:22:27.561Z,42.10
2023-08-29T19:27:32.946Z,41.63
2023-08-29T19:32:38.105Z,42.24
2023-08-29T19:37:41.892Z,41.70
2023-08-29T19:42:45.465Z,42.46
2023-08-29T19:47:50.554Z,42.79
2023-08-29T19:52:54.285Z,43.00
2023-08-29T19:57:57.808Z,42.28
2023-08-29T20:03:03.246Z,43.48
2023-08-29T20:08:07.485Z,43.13
2023-08-29T20:13:14.103Z,43.09
2023-08-29T20:18:19.210Z,42.77
2023-08-29T20:23:22.828Z,42.41
2023-08-29T20:28:26.481Z,42.15
2023-08-29T20:33:32.708Z,42.73
2023-08-29T20:38:36.261Z,42.74
2023-08-29T20:43:39.741Z,43.06
2023-08-29T20:48:46.971Z,43.68
2023-08-29T20:53:50.991Z,44.84
2023-08-29T20:58:56.809Z,44.91
2023-08-29T21:04:01.878Z,45.49
2023-08-29T21:09:05.397Z,45.15
2023-08-29T21:14:08.882Z,45.70
2023-08-29T21:19:14.014Z,44.96
2023-08-29T21:24:17.713Z,45.56
2023-08-29T21:29:22.191Z,45.76
2023-08-29T21:34:27.046Z,44.91
2023-08-29T21:39:31.007Z,44.85
2023-08-29T21:44:34.673Z,45.96
2023-08-29T21:49:39.718Z,46.63
2023-08-29T21:54:43.313Z,46.11
2023-08-29T21:59:46.794Z,46.73
2023-08-29T22:04:51.805Z,46.73
2023-08-29T22:09:55.639Z,47.33
2023-08-29T22:14:59.198Z,47.54
2023-08-29T22:20:04.793Z,47.48
2023-08-29T22:25:09.849Z,48.48
2023-08-29T22:30:14.743Z,47.25
2023-08-29T22:35:21.283Z,47.81
2023-08-29T22:40:25.172Z,47.25
2023-08-29T22:45:28.779Z,46.89
2023-08-29T22:50:34.469Z,46.53
2023-08-29T22:55:38.078Z,48.31
2023-08-29T23:00:42.882Z,47.83
2023-08-29T23:05:48.925Z,49.04
2023-08-29T23:10:55.624Z,47.73
2023-08-29T23:16:03.808Z,47.95
2023-08-29T23:21:08.809Z,48.28
2023-08-29T23:26:12.427Z,46.87
2023-08-29T23:31:16.006Z,48.93
2023-08-29T23:36:22.063Z,48.53
2023-08-29T23:41:25.703Z,48.70
2023-08-29T23:46:30.121Z,47.94
2023-08-29T23:51:35.440Z,48.75
2023-08-29T23:56:39.187Z,48.46
